الصفحة الرئيسية
METAR-TAF:

METAR-TAF

مطار :

مدريد, إسبانيا

مطار مدريد باراخاس الدولي

دائرة عرض: 40-27N, خط طول: 003-33W, ارتفاع: 609 متر

مراقبة الطقس الحالي

تاريخ ووقت الإصدار 33 دقيقة قبل الساعة 02:30UTC
ريح 4 عقدة من الشمال/الشمال الغربي, الاتجاه يتراوح بين الشمال الغربي و الشمال
درجة الحرارة 11°درجة مئوية
الرطوبة 87%
ضغط 1019 hPa
الرؤية 10 كم أو أكثر
الغيوم لا تقل 1500 م ولا وجود لمزنة ركامية السحاب الأسود

METAR: LEMD 220230Z 34004KT 310V010 CAVOK 11/09 Q1019 NOSIG

زمن: 05:03 (03:03 UTC)

توقعات

تاريخ ووقت الإصدار 4ساعات و 3 دقيقة قبل الساعة 23:00UTC
التوقعات صالحة من22 الساعة 00 UTC إلى 23 الساعة 06 UTC
ريح 10 عقدة من الشمال
الرؤية 10 كم أو أكثر
الغيوم لا تقل 1500 م ولا وجود لمزنة ركامية السحاب الأسود
أصبح
من 22 الساعة 23 UTC إلى 23 الساعة 01 UTC
ريح 10 عقدة من الشرق/الجنوب الشرقي
نظرية الاحتمالات 30% :
مؤقت
من 23 الساعة 02 UTC إلى 23 الساعة 06 UTC
غيوم قليلة على ارتفاع 4000 قدم, مزن ركامية عمودية.
زخات من المطر

TAF: LEMD 212300Z 2200/2306 01010KT CAVOK TX26/2216Z TN12/2206Z BECMG 2223/2301 12010KT PROB30 TEMPO 2302/2306 SHRA FEW040TCU

أرصاد الطقس والتوقعات من أكثر من 4000 مطار (تقارير الطقس للمطار METAR والتنبؤ بالطقس بالمطارTAF).

المحطات المتاحة هي النقط الصفراء والحمراء على الخريطة.

حرك المؤشر فوق النقطة لمعرفة اسم المحطة.

ثم انقر لمعرفة أرصاد وتوقعات الطقس.

لتغيير الخارطة: اضغط على الأزرار الخضراء مع رمز الصليب الأسود للتكبير. على الزر الأخضر مع شرطة للتصغير، أو على الأسهم الخضراء للخرائط المجاورة.


METAR-TAF: